Summit, NY (12175)

12:10 AM EDT on July 29, 2016 (GMT -0400)
Charlotte Valley | | Change Station

Elev 1430 ft 42.52 °N, 74.72 °W | Updated 7 minutes ago

Overcast
Overcast
68.0 °F
Feels Like 68.0 °F
N
0.0
Wind Variable Wind from WSW

Today
High -- | Low -- °F
--% Chance of Precip.
Yesterday
High -- | Low -- °F
Precip. -- in
Pressure 29.89 in
Visibility 10.0 miles
Clouds Few 7500 ft
Overcast 20000 ft
Dew Point 66 °F
Humidity 93%
Rainfall 0.00 in
Snow Depth Not available.
5:47 AM 8:20 PM
Waning Crescent, 26% visible
METAR KALB 290351Z 01003KT 10SM FEW075 OVC200 23/19 A2989 RMK AO2 SLP120 T02280189
Pressure 29.89 in
Visibility 10.0 miles
Clouds Few 7500 ft
Overcast 20000 ft
Dew Point 66 °F
Humidity 93%
Rainfall 0.00 in
Snow Depth Not available.
5:47 AM 8:20 PM
Waning Crescent, 26% visible
METAR KALB 290351Z 01003KT 10SM FEW075 OVC200 23/19 A2989 RMK AO2 SLP120 T02280189

10-Day Weather Forecast

Almanac

Astronomy

Jul. 29, 2016 Rise Set
Actual Time
Civil Twilight
Nautical Twilight
Astronomical Twilight
Moon
Length of Visible Light
Length of Day
Tomorrow will be .
, % of the Moon is Illuminated

Today's Extremes

State Highs State Lows

Community

WunderPhotos

Upload Photos

1,928,292 photos uploaded!

WunderBlog® & News

Nearby

Air Quality

  Air Quality AQ Index Pollutant
Not available.

Snow Depth

Station Depth Elevation

Earthquake Activity

City Distance Mag. Time & Date
Minimum magnitude displayed is 2.5.

Coastal Water Temperatures

Place Temperature

Stations

Nearby Weather Stations

Station Location Temp. Windchill Dew Point Humidity Wind Precip. Elev Updated Type
                   

Watches & Warnings

There are currently no watches in effect.